sensor_id;sensor_type;location;lat;lon;timestamp;temperature;humidity
64961;SHT31;51487;52.266;10.542;2024-01-15T00:01:29;1.95;94.35
64961;SHT31;51487;52.266;10.542;2024-01-15T00:03:54;2.01;94.12
64961;SHT31;51487;52.266;10.542;2024-01-15T00:06:20;2.05;93.91
64961;SHT31;51487;52.266;10.542;2024-01-15T00:08:45;2.03;93.88
64961;SHT31;51487;52.266;10.542;2024-01-15T00:11:11;2.04;93.90
64961;SHT31;51487;52.266;10.542;2024-01-15T00:13:36;2.04;93.94
64961;SHT31;51487;52.266;10.542;2024-01-15T00:16:02;2.04;94.12
64961;SHT31;51487;52.266;10.542;2024-01-15T00:18:27;2.03;94.31
64961;SHT31;51487;52.266;10.542;2024-01-15T00:20:53;2.01;94.50
64961;SHT31;51487;52.266;10.542;2024-01-15T00:23:18;2.00;94.79
64961;SHT31;51487;52.266;10.542;2024-01-15T00:25:44;2.00;94.99
64961;SHT31;51487;52.266;10.542;2024-01-15T00:28:09;1.94;95.19
64961;SHT31;51487;52.266;10.542;2024-01-15T00:30:35;1.91;95.25
64961;SHT31;51487;52.266;10.542;2024-01-15T00:33:00;1.93;95.62
64961;SHT31;51487;52.266;10.542;2024-01-15T00:35:25;1.85;95.73
64961;SHT31;51487;52.266;10.542;2024-01-15T00:37:51;1.87;95.81
64961;SHT31;51487;52.266;10.542;2024-01-15T00:40:17;1.81;96.00
64961;SHT31;51487;52.266;10.542;2024-01-15T00:42:42;1.81;95.99
64961;SHT31;51487;52.266;10.542;2024-01-15T00:45:08;1.91;95.66
64961;SHT31;51487;52.266;10.542;2024-01-15T00:47:34;1.94;95.65
64961;SHT31;51487;52.266;10.542;2024-01-15T00:50:00;1.97;95.49
64961;SHT31;51487;52.266;10.542;2024-01-15T00:52:26;1.95;95.46
64961;SHT31;51487;52.266;10.542;2024-01-15T00:54:51;1.88;95.28
64961;SHT31;51487;52.266;10.542;2024-01-15T00:57:17;1.97;95.28
64961;SHT31;51487;52.266;10.542;2024-01-15T00:59:44;1.97;95.27
64961;SHT31;51487;52.266;10.542;2024-01-15T01:02:10;2.00;94.93
64961;SHT31;51487;52.266;10.542;2024-01-15T01:04:36;2.08;94.82
64961;SHT31;51487;52.266;10.542;2024-01-15T01:07:01;1.98;95.01
64961;SHT31;51487;52.266;10.542;2024-01-15T01:09:27;1.95;94.80
64961;SHT31;51487;52.266;10.542;2024-01-15T01:11:55;1.90;94.81
64961;SHT31;51487;52.266;10.542;2024-01-15T01:14:22;1.83;94.79
64961;SHT31;51487;52.266;10.542;2024-01-15T01:16:47;1.78;94.85
64961;SHT31;51487;52.266;10.542;2024-01-15T01:19:13;1.76;94.71
64961;SHT31;51487;52.266;10.542;2024-01-15T01:21:38;1.68;94.81
64961;SHT31;51487;52.266;10.542;2024-01-15T01:24:04;1.73;94.71
64961;SHT31;51487;52.266;10.542;2024-01-15T01:26:30;1.74;94.69
64961;SHT31;51487;52.266;10.542;2024-01-15T01:28:56;1.74;94.64
64961;SHT31;51487;52.266;10.542;2024-01-15T01:31:25;1.70;94.95
64961;SHT31;51487;52.266;10.542;2024-01-15T01:33:51;1.57;95.42
64961;SHT31;51487;52.266;10.542;2024-01-15T01:36:16;1.59;95.37
64961;SHT31;51487;52.266;10.542;2024-01-15T01:38:42;1.50;95.80
64961;SHT31;51487;52.266;10.542;2024-01-15T01:41:07;1.52;95.80
64961;SHT31;51487;52.266;10.542;2024-01-15T01:43:33;1.62;95.44
64961;SHT31;51487;52.266;10.542;2024-01-15T01:46:00;1.68;95.26
64961;SHT31;51487;52.266;10.542;2024-01-15T01:48:26;1.81;94.64
64961;SHT31;51487;52.266;10.542;2024-01-15T01:50:59;1.74;94.56
64961;SHT31;51487;52.266;10.542;2024-01-15T01:53:26;1.76;94.99
64961;SHT31;51487;52.266;10.542;2024-01-15T01:55:54;1.85;94.66
64961;SHT31;51487;52.266;10.542;2024-01-15T01:58:20;1.84;94.61
64961;SHT31;51487;52.266;10.542;2024-01-15T02:00:47;1.83;94.60
64961;SHT31;51487;52.266;10.542;2024-01-15T02:03:12;1.84;94.71
64961;SHT31;51487;52.266;10.542;2024-01-15T02:05:40;1.93;94.63
64961;SHT31;51487;52.266;10.542;2024-01-15T02:08:06;1.80;94.47
64961;SHT31;51487;52.266;10.542;2024-01-15T02:10:31;1.80;94.52
64961;SHT31;51487;52.266;10.542;2024-01-15T02:12:58;1.90;94.23
64961;SHT31;51487;52.266;10.542;2024-01-15T02:15:23;1.95;93.84
64961;SHT31;51487;52.266;10.542;2024-01-15T02:18:00;1.94;93.71
64961;SHT31;51487;52.266;10.542;2024-01-15T02:20:26;1.97;93.52
64961;SHT31;51487;52.266;10.542;2024-01-15T02:22:52;2.03;92.59
64961;SHT31;51487;52.266;10.542;2024-01-15T02:25:18;2.04;92.67
64961;SHT31;51487;52.266;10.542;2024-01-15T02:27:45;2.10;92.09
64961;SHT31;51487;52.266;10.542;2024-01-15T02:30:12;2.10;92.02
64961;SHT31;51487;52.266;10.542;2024-01-15T02:32:38;2.14;91.40
64961;SHT31;51487;52.266;10.542;2024-01-15T02:35:04;2.21;90.54
64961;SHT31;51487;52.266;10.542;2024-01-15T02:37:30;2.25;90.46
64961;SHT31;51487;52.266;10.542;2024-01-15T02:39:55;2.20;90.29
64961;SHT31;51487;52.266;10.542;2024-01-15T02:42:21;2.22;90.45
64961;SHT31;51487;52.266;10.542;2024-01-15T02:44:46;2.24;90.23
64961;SHT31;51487;52.266;10.542;2024-01-15T02:47:14;2.22;90.32
64961;SHT31;51487;52.266;10.542;2024-01-15T02:49:39;2.24;90.30
64961;SHT31;51487;52.266;10.542;2024-01-15T02:52:05;2.26;89.55
64961;SHT31;51487;52.266;10.542;2024-01-15T02:54:31;2.21;89.88
64961;SHT31;51487;52.266;10.542;2024-01-15T02:56:56;2.22;89.91
64961;SHT31;51487;52.266;10.542;2024-01-15T02:59:22;2.32;89.50
64961;SHT31;51487;52.266;10.542;2024-01-15T03:01:47;2.35;89.51
64961;SHT31;51487;52.266;10.542;2024-01-15T03:04:12;2.28;89.66
64961;SHT31;51487;52.266;10.542;2024-01-15T03:06:38;2.36;89.72
64961;SHT31;51487;52.266;10.542;2024-01-15T03:09:03;2.39;89.32
64961;SHT31;51487;52.266;10.542;2024-01-15T03:11:29;2.36;89.15
64961;SHT31;51487;52.266;10.542;2024-01-15T03:13:54;2.42;89.04
64961;SHT31;51487;52.266;10.542;2024-01-15T03:16:20;2.48;89.47
64961;SHT31;51487;52.266;10.542;2024-01-15T03:18:46;2.48;88.91
64961;SHT31;51487;52.266;10.542;2024-01-15T03:21:11;2.41;89.40
64961;SHT31;51487;52.266;10.542;2024-01-15T03:23:37;2.39;89.30
64961;SHT31;51487;52.266;10.542;2024-01-15T03:26:02;2.45;89.22
64961;SHT31;51487;52.266;10.542;2024-01-15T03:28:28;2.52;88.97
64961;SHT31;51487;52.266;10.542;2024-01-15T03:30:55;2.52;88.86
64961;SHT31;51487;52.266;10.542;2024-01-15T03:33:21;2.46;88.99
64961;SHT31;51487;52.266;10.542;2024-01-15T03:35:48;2.43;89.47
64961;SHT31;51487;52.266;10.542;2024-01-15T03:38:13;2.42;89.14
64961;SHT31;51487;52.266;10.542;2024-01-15T03:40:39;2.42;89.67
64961;SHT31;51487;52.266;10.542;2024-01-15T03:43:04;2.45;89.66
64961;SHT31;51487;52.266;10.542;2024-01-15T03:45:29;2.46;89.23
64961;SHT31;51487;52.266;10.542;2024-01-15T03:47:55;2.49;89.09
64961;SHT31;51487;52.266;10.542;2024-01-15T03:50:20;2.49;89.13
64961;SHT31;51487;52.266;10.542;2024-01-15T03:52:46;2.48;89.10
64961;SHT31;51487;52.266;10.542;2024-01-15T03:55:11;2.50;89.04
64961;SHT31;51487;52.266;10.542;2024-01-15T03:57:37;2.46;88.81
64961;SHT31;51487;52.266;10.542;2024-01-15T04:00:03;2.55;89.11
64961;SHT31;51487;52.266;10.542;2024-01-15T04:02:29;2.43;89.27
64961;SHT31;51487;52.266;10.542;2024-01-15T04:04:54;2.52;89.47
64961;SHT31;51487;52.266;10.542;2024-01-15T04:07:20;2.50;89.76
64961;SHT31;51487;52.266;10.542;2024-01-15T04:09:45;2.43;89.87
64961;SHT31;51487;52.266;10.542;2024-01-15T04:12:11;2.41;90.18
64961;SHT31;51487;52.266;10.542;2024-01-15T04:14:36;2.41;90.20
64961;SHT31;51487;52.266;10.542;2024-01-15T04:17:02;2.39;90.47
64961;SHT31;51487;52.266;10.542;2024-01-15T04:19:27;2.35;90.65
64961;SHT31;51487;52.266;10.542;2024-01-15T04:21:53;2.36;90.67
64961;SHT31;51487;52.266;10.542;2024-01-15T04:24:18;2.31;91.35
64961;SHT31;51487;52.266;10.542;2024-01-15T04:26:44;2.26;91.63
64961;SHT31;51487;52.266;10.542;2024-01-15T04:29:10;2.22;92.21
64961;SHT31;51487;52.266;10.542;2024-01-15T04:31:35;2.25;92.16
64961;SHT31;51487;52.266;10.542;2024-01-15T04:34:01;2.10;92.41
64961;SHT31;51487;52.266;10.542;2024-01-15T04:36:26;2.20;92.09
64961;SHT31;51487;52.266;10.542;2024-01-15T04:38:52;2.28;91.46
64961;SHT31;51487;52.266;10.542;2024-01-15T04:41:17;2.32;91.42
64961;SHT31;51487;52.266;10.542;2024-01-15T04:43:43;2.34;91.21
64961;SHT31;51487;52.266;10.542;2024-01-15T04:46:08;2.36;90.78
64961;SHT31;51487;52.266;10.542;2024-01-15T04:48:35;2.32;90.79
64961;SHT31;51487;52.266;10.542;2024-01-15T04:51:00;2.41;90.65
64961;SHT31;51487;52.266;10.542;2024-01-15T04:53:26;2.36;90.72
64961;SHT31;51487;52.266;10.542;2024-01-15T04:55:51;2.36;90.62
64961;SHT31;51487;52.266;10.542;2024-01-15T04:58:17;2.39;91.31
64961;SHT31;51487;52.266;10.542;2024-01-15T05:00:42;2.45;91.28
64961;SHT31;51487;52.266;10.542;2024-01-15T05:03:08;2.49;90.86
64961;SHT31;51487;52.266;10.542;2024-01-15T05:05:33;2.48;90.87
64961;SHT31;51487;52.266;10.542;2024-01-15T05:07:59;2.35;91.36
64961;SHT31;51487;52.266;10.542;2024-01-15T05:10:24;2.46;90.96
64961;SHT31;51487;52.266;10.542;2024-01-15T05:12:49;2.49;91.04
64961;SHT31;51487;52.266;10.542;2024-01-15T05:15:15;2.50;90.76
64961;SHT31;51487;52.266;10.542;2024-01-15T05:17:40;2.53;90.37
64961;SHT31;51487;52.266;10.542;2024-01-15T05:20:06;2.60;90.78
64961;SHT31;51487;52.266;10.542;2024-01-15T05:22:32;2.41;91.62
64961;SHT31;51487;52.266;10.542;2024-01-15T05:24:58;2.41;92.54
64961;SHT31;51487;52.266;10.542;2024-01-15T05:27:23;2.34;93.00
64961;SHT31;51487;52.266;10.542;2024-01-15T05:29:49;2.29;93.49
64961;SHT31;51487;52.266;10.542;2024-01-15T05:32:14;2.15;94.29
64961;SHT31;51487;52.266;10.542;2024-01-15T05:34:40;2.25;94.38
64961;SHT31;51487;52.266;10.542;2024-01-15T05:37:05;2.22;94.06
64961;SHT31;51487;52.266;10.542;2024-01-15T05:39:31;2.17;94.30
64961;SHT31;51487;52.266;10.542;2024-01-15T05:41:57;2.14;93.75
64961;SHT31;51487;52.266;10.542;2024-01-15T05:44:23;2.17;93.29
64961;SHT31;51487;52.266;10.542;2024-01-15T05:46:48;2.24;93.18
64961;SHT31;51487;52.266;10.542;2024-01-15T05:49:13;2.21;92.70
64961;SHT31;51487;52.266;10.542;2024-01-15T05:51:39;2.21;92.55
64961;SHT31;51487;52.266;10.542;2024-01-15T05:54:05;2.31;92.12
64961;SHT31;51487;52.266;10.542;2024-01-15T05:56:31;2.39;91.76
64961;SHT31;51487;52.266;10.542;2024-01-15T05:58:56;2.38;91.98
64961;SHT31;51487;52.266;10.542;2024-01-15T06:01:22;2.34;92.20
64961;SHT31;51487;52.266;10.542;2024-01-15T06:03:47;2.31;92.75
64961;SHT31;51487;52.266;10.542;2024-01-15T06:06:13;2.22;93.02
64961;SHT31;51487;52.266;10.542;2024-01-15T06:08:38;2.15;93.30
64961;SHT31;51487;52.266;10.542;2024-01-15T06:11:04;2.15;93.56
64961;SHT31;51487;52.266;10.542;2024-01-15T06:13:30;2.25;93.09
64961;SHT31;51487;52.266;10.542;2024-01-15T06:15:55;2.26;93.00
64961;SHT31;51487;52.266;10.542;2024-01-15T06:18:21;2.25;92.82
64961;SHT31;51487;52.266;10.542;2024-01-15T06:20:46;2.24;92.73
64961;SHT31;51487;52.266;10.542;2024-01-15T06:23:12;2.25;92.86
64961;SHT31;51487;52.266;10.542;2024-01-15T06:25:37;2.38;92.25
64961;SHT31;51487;52.266;10.542;2024-01-15T06:28:03;2.39;92.39
64961;SHT31;51487;52.266;10.542;2024-01-15T06:30:30;2.32;92.52
64961;SHT31;51487;52.266;10.542;2024-01-15T06:32:55;2.32;92.87
64961;SHT31;51487;52.266;10.542;2024-01-15T06:35:21;2.28;92.89
64961;SHT31;51487;52.266;10.542;2024-01-15T06:37:46;2.20;93.42
64961;SHT31;51487;52.266;10.542;2024-01-15T06:40:12;2.17;94.13
64961;SHT31;51487;52.266;10.542;2024-01-15T06:42:37;2.05;94.32
64961;SHT31;51487;52.266;10.542;2024-01-15T06:45:03;2.15;94.37
64961;SHT31;51487;52.266;10.542;2024-01-15T06:47:29;2.17;94.29
64961;SHT31;51487;52.266;10.542;2024-01-15T06:49:54;2.15;93.93
64961;SHT31;51487;52.266;10.542;2024-01-15T06:52:20;2.14;93.80
64961;SHT31;51487;52.266;10.542;2024-01-15T06:54:45;2.11;93.90
64961;SHT31;51487;52.266;10.542;2024-01-15T06:57:11;2.18;93.71
64961;SHT31;51487;52.266;10.542;2024-01-15T06:59:36;2.20;93.43
64961;SHT31;51487;52.266;10.542;2024-01-15T07:02:02;2.15;93.61
64961;SHT31;51487;52.266;10.542;2024-01-15T07:04:28;2.08;93.85
64961;SHT31;51487;52.266;10.542;2024-01-15T07:06:53;2.05;94.29
64961;SHT31;51487;52.266;10.542;2024-01-15T07:09:18;2.05;94.29
64961;SHT31;51487;52.266;10.542;2024-01-15T07:11:45;2.07;94.37
64961;SHT31;51487;52.266;10.542;2024-01-15T07:14:12;2.13;94.32
64961;SHT31;51487;52.266;10.542;2024-01-15T07:16:38;2.05;94.56
64961;SHT31;51487;52.266;10.542;2024-01-15T07:19:04;2.07;94.34
64961;SHT31;51487;52.266;10.542;2024-01-15T07:21:29;2.13;94.39
64961;SHT31;51487;52.266;10.542;2024-01-15T07:23:55;2.04;94.33
64961;SHT31;51487;52.266;10.542;2024-01-15T07:26:21;2.14;94.30
64961;SHT31;51487;52.266;10.542;2024-01-15T07:28:47;2.11;94.24
64961;SHT31;51487;52.266;10.542;2024-01-15T07:31:12;2.05;94.63
64961;SHT31;51487;52.266;10.542;2024-01-15T07:33:38;1.90;94.94
64961;SHT31;51487;52.266;10.542;2024-01-15T07:36:04;1.97;94.88
64961;SHT31;51487;52.266;10.542;2024-01-15T07:38:29;1.93;95.03
64961;SHT31;51487;52.266;10.542;2024-01-15T07:40:55;1.90;95.58
64961;SHT31;51487;52.266;10.542;2024-01-15T07:43:20;1.90;96.00
64961;SHT31;51487;52.266;10.542;2024-01-15T07:45:46;2.00;95.32
64961;SHT31;51487;52.266;10.542;2024-01-15T07:48:11;2.01;94.83
64961;SHT31;51487;52.266;10.542;2024-01-15T07:50:37;2.01;94.79
64961;SHT31;51487;52.266;10.542;2024-01-15T07:53:03;2.08;94.47
64961;SHT31;51487;52.266;10.542;2024-01-15T07:55:29;2.07;94.45
64961;SHT31;51487;52.266;10.542;2024-01-15T07:57:54;2.17;93.90
64961;SHT31;51487;52.266;10.542;2024-01-15T08:00:24;2.26;93.33
64961;SHT31;51487;52.266;10.542;2024-01-15T08:02:49;2.29;93.14
64961;SHT31;51487;52.266;10.542;2024-01-15T08:05:16;2.34;92.93
64961;SHT31;51487;52.266;10.542;2024-01-15T08:07:42;2.34;92.97
64961;SHT31;51487;52.266;10.542;2024-01-15T08:10:08;2.41;93.13
64961;SHT31;51487;52.266;10.542;2024-01-15T08:12:33;2.46;92.56
64961;SHT31;51487;52.266;10.542;2024-01-15T08:14:58;2.36;92.78
64961;SHT31;51487;52.266;10.542;2024-01-15T08:17:24;2.46;92.65
64961;SHT31;51487;52.266;10.542;2024-01-15T08:19:54;2.39;93.28
64961;SHT31;51487;52.266;10.542;2024-01-15T08:22:20;2.34;94.01
64961;SHT31;51487;52.266;10.542;2024-01-15T08:24:45;2.32;94.56
64961;SHT31;51487;52.266;10.542;2024-01-15T08:27:11;2.26;94.75
64961;SHT31;51487;52.266;10.542;2024-01-15T08:29:36;2.34;94.77
64961;SHT31;51487;52.266;10.542;2024-01-15T08:32:02;2.24;94.70
64961;SHT31;51487;52.266;10.542;2024-01-15T08:34:27;2.28;94.64
64961;SHT31;51487;52.266;10.542;2024-01-15T08:36:53;2.26;94.76
64961;SHT31;51487;52.266;10.542;2024-01-15T08:39:19;2.32;94.50
64961;SHT31;51487;52.266;10.542;2024-01-15T08:41:46;2.35;94.38
64961;SHT31;51487;52.266;10.542;2024-01-15T08:44:14;2.26;94.88
64961;SHT31;51487;52.266;10.542;2024-01-15T08:46:39;2.25;94.83
64961;SHT31;51487;52.266;10.542;2024-01-15T08:49:05;2.28;94.96
64961;SHT31;51487;52.266;10.542;2024-01-15T08:51:31;2.31;95.02
64961;SHT31;51487;52.266;10.542;2024-01-15T08:53:56;2.18;95.41
64961;SHT31;51487;52.266;10.542;2024-01-15T08:56:23;2.26;95.16
64961;SHT31;51487;52.266;10.542;2024-01-15T08:58:48;2.13;95.16
64961;SHT31;51487;52.266;10.542;2024-01-15T09:01:13;2.20;94.97
64961;SHT31;51487;52.266;10.542;2024-01-15T09:03:40;2.17;95.05
64961;SHT31;51487;52.266;10.542;2024-01-15T09:06:08;2.20;95.14
64961;SHT31;51487;52.266;10.542;2024-01-15T09:08:35;2.07;95.35
64961;SHT31;51487;52.266;10.542;2024-01-15T09:11:01;2.10;95.54
64961;SHT31;51487;52.266;10.542;2024-01-15T09:13:28;2.11;95.64
64961;SHT31;51487;52.266;10.542;2024-01-15T09:15:53;2.08;95.36
64961;SHT31;51487;52.266;10.542;2024-01-15T09:18:19;2.13;95.63
64961;SHT31;51487;52.266;10.542;2024-01-15T09:20:44;2.20;95.47
64961;SHT31;51487;52.266;10.542;2024-01-15T09:23:10;2.31;94.93
64961;SHT31;51487;52.266;10.542;2024-01-15T09:25:35;2.35;94.48
64961;SHT31;51487;52.266;10.542;2024-01-15T09:28:01;2.52;94.15
64961;SHT31;51487;52.266;10.542;2024-01-15T09:30:26;2.67;93.61
64961;SHT31;51487;52.266;10.542;2024-01-15T09:32:52;2.67;92.97
64961;SHT31;51487;52.266;10.542;2024-01-15T09:35:17;2.57;93.80
64961;SHT31;51487;52.266;10.542;2024-01-15T09:37:42;2.45;93.91
64961;SHT31;51487;52.266;10.542;2024-01-15T09:40:12;2.43;94.20
64961;SHT31;51487;52.266;10.542;2024-01-15T09:42:40;2.45;93.99
64961;SHT31;51487;52.266;10.542;2024-01-15T09:45:07;2.46;93.86
64961;SHT31;51487;52.266;10.542;2024-01-15T09:47:35;2.62;92.76
64961;SHT31;51487;52.266;10.542;2024-01-15T09:50:02;2.63;92.21
64961;SHT31;51487;52.266;10.542;2024-01-15T09:52:30;2.57;92.38
64961;SHT31;51487;52.266;10.542;2024-01-15T09:54:58;2.66;92.34
64961;SHT31;51487;52.266;10.542;2024-01-15T09:57:26;2.67;91.94
64961;SHT31;51487;52.266;10.542;2024-01-15T09:59:53;2.69;92.06
64961;SHT31;51487;52.266;10.542;2024-01-15T10:02:20;2.71;91.95
64961;SHT31;51487;52.266;10.542;2024-01-15T10:04:45;2.60;91.70
64961;SHT31;51487;52.266;10.542;2024-01-15T10:07:16;2.79;91.29
64961;SHT31;51487;52.266;10.542;2024-01-15T10:09:42;2.93;91.52
64961;SHT31;51487;52.266;10.542;2024-01-15T10:12:09;2.82;90.94
64961;SHT31;51487;52.266;10.542;2024-01-15T10:14:35;2.90;90.68
64961;SHT31;51487;52.266;10.542;2024-01-15T10:17:01;3.04;90.44
64961;SHT31;51487;52.266;10.542;2024-01-15T10:19:36;2.97;90.02
64961;SHT31;51487;52.266;10.542;2024-01-15T10:22:01;2.97;90.38
64961;SHT31;51487;52.266;10.542;2024-01-15T10:24:28;3.01;90.17
64961;SHT31;51487;52.266;10.542;2024-01-15T10:27:05;2.97;89.93
64961;SHT31;51487;52.266;10.542;2024-01-15T10:29:32;3.05;89.38
64961;SHT31;51487;52.266;10.542;2024-01-15T10:31:58;3.10;90.08
64961;SHT31;51487;52.266;10.542;2024-01-15T10:34:25;3.07;89.41
64961;SHT31;51487;52.266;10.542;2024-01-15T10:36:50;3.17;89.10
64961;SHT31;51487;52.266;10.542;2024-01-15T10:39:24;3.21;88.97
64961;SHT31;51487;52.266;10.542;2024-01-15T10:41:50;3.14;89.53
64961;SHT31;51487;52.266;10.542;2024-01-15T10:44:17;3.10;89.33
64961;SHT31;51487;52.266;10.542;2024-01-15T10:46:45;3.14;89.10
64961;SHT31;51487;52.266;10.542;2024-01-15T10:49:11;2.99;89.88
64961;SHT31;51487;52.266;10.542;2024-01-15T10:51:38;3.01;89.71
64961;SHT31;51487;52.266;10.542;2024-01-15T10:54:05;3.05;89.48
64961;SHT31;51487;52.266;10.542;2024-01-15T10:56:32;2.97;89.41
64961;SHT31;51487;52.266;10.542;2024-01-15T10:58:59;2.97;89.31
64961;SHT31;51487;52.266;10.542;2024-01-15T11:01:25;2.97;89.44
64961;SHT31;51487;52.266;10.542;2024-01-15T11:03:51;3.11;88.76
64961;SHT31;51487;52.266;10.542;2024-01-15T11:06:18;3.07;88.76
64961;SHT31;51487;52.266;10.542;2024-01-15T11:08:49;3.08;88.95
64961;SHT31;51487;52.266;10.542;2024-01-15T11:11:18;3.01;89.17
64961;SHT31;51487;52.266;10.542;2024-01-15T11:13:46;3.01;89.61
64961;SHT31;51487;52.266;10.542;2024-01-15T11:16:14;2.90;89.84
64961;SHT31;51487;52.266;10.542;2024-01-15T11:19:02;2.76;90.98
64961;SHT31;51487;52.266;10.542;2024-01-15T11:21:28;2.80;91.61
64961;SHT31;51487;52.266;10.542;2024-01-15T11:24:01;2.67;92.23
64961;SHT31;51487;52.266;10.542;2024-01-15T11:26:44;2.72;92.65
64961;SHT31;51487;52.266;10.542;2024-01-15T11:32:09;2.84;92.66
64961;SHT31;51487;52.266;10.542;2024-01-15T11:34:59;2.89;92.03
64961;SHT31;51487;52.266;10.542;2024-01-15T11:40:19;2.84;91.95
64961;SHT31;51487;52.266;10.542;2024-01-15T11:42:46;2.99;91.15
64961;SHT31;51487;52.266;10.542;2024-01-15T11:45:13;3.11;89.99
64961;SHT31;51487;52.266;10.542;2024-01-15T11:48:08;2.99;90.13
64961;SHT31;51487;52.266;10.542;2024-01-15T11:50:45;3.01;89.23
64961;SHT31;51487;52.266;10.542;2024-01-15T11:53:25;3.03;89.17
64961;SHT31;51487;52.266;10.542;2024-01-15T11:55:53;3.05;88.87
64961;SHT31;51487;52.266;10.542;2024-01-15T11:58:21;3.07;88.54
64961;SHT31;51487;52.266;10.542;2024-01-15T12:00:48;3.03;88.29
64961;SHT31;51487;52.266;10.542;2024-01-15T12:03:15;3.08;87.96
64961;SHT31;51487;52.266;10.542;2024-01-15T12:05:41;2.97;88.48
64961;SHT31;51487;52.266;10.542;2024-01-15T12:08:09;3.03;87.41
64961;SHT31;51487;52.266;10.542;2024-01-15T12:10:41;3.13;87.58
64961;SHT31;51487;52.266;10.542;2024-01-15T12:13:14;3.04;87.28
64961;SHT31;51487;52.266;10.542;2024-01-15T12:15:42;3.08;87.55
64961;SHT31;51487;52.266;10.542;2024-01-15T12:18:09;3.25;87.24
64961;SHT31;51487;52.266;10.542;2024-01-15T12:20:35;3.36;86.25
64961;SHT31;51487;52.266;10.542;2024-01-15T12:23:02;3.31;86.70
64961;SHT31;51487;52.266;10.542;2024-01-15T12:25:32;3.30;86.67
64961;SHT31;51487;52.266;10.542;2024-01-15T12:28:00;3.17;85.90
64961;SHT31;51487;52.266;10.542;2024-01-15T12:30:30;3.18;86.56
64961;SHT31;51487;52.266;10.542;2024-01-15T12:33:06;3.23;85.92
64961;SHT31;51487;52.266;10.542;2024-01-15T12:35:34;3.27;86.21
64961;SHT31;51487;52.266;10.542;2024-01-15T12:38:01;3.31;86.98
64961;SHT31;51487;52.266;10.542;2024-01-15T12:40:30;3.28;85.63
64961;SHT31;51487;52.266;10.542;2024-01-15T12:42:56;3.14;86.60
64961;SHT31;51487;52.266;10.542;2024-01-15T12:45:22;3.13;86.82
64961;SHT31;51487;52.266;10.542;2024-01-15T12:47:47;3.08;86.89
64961;SHT31;51487;52.266;10.542;2024-01-15T12:50:14;2.96;87.15
64961;SHT31;51487;52.266;10.542;2024-01-15T12:52:42;3.05;87.22
64961;SHT31;51487;52.266;10.542;2024-01-15T12:55:09;3.03;87.09
64961;SHT31;51487;52.266;10.542;2024-01-15T12:57:35;2.99;86.61
64961;SHT31;51487;52.266;10.542;2024-01-15T13:00:03;2.84;87.77
64961;SHT31;51487;52.266;10.542;2024-01-15T13:02:42;2.90;87.66
64961;SHT31;51487;52.266;10.542;2024-01-15T13:05:09;2.84;87.76
64961;SHT31;51487;52.266;10.542;2024-01-15T13:07:36;2.83;87.59
64961;SHT31;51487;52.266;10.542;2024-01-15T13:10:02;2.93;87.49
64961;SHT31;51487;52.266;10.542;2024-01-15T13:12:28;2.84;88.13
64961;SHT31;51487;52.266;10.542;2024-01-15T13:14:53;2.89;87.38
64961;SHT31;51487;52.266;10.542;2024-01-15T13:17:19;2.86;87.72
64961;SHT31;51487;52.266;10.542;2024-01-15T13:19:46;2.90;87.25
64961;SHT31;51487;52.266;10.542;2024-01-15T13:22:11;2.77;87.87
64961;SHT31;51487;52.266;10.542;2024-01-15T13:24:39;2.80;87.77
64961;SHT31;51487;52.266;10.542;2024-01-15T13:27:05;2.86;87.47
64961;SHT31;51487;52.266;10.542;2024-01-15T13:29:32;2.84;87.58
64961;SHT31;51487;52.266;10.542;2024-01-15T13:31:58;2.86;87.45
64961;SHT31;51487;52.266;10.542;2024-01-15T13:34:23;2.79;88.28
64961;SHT31;51487;52.266;10.542;2024-01-15T13:36:49;2.97;87.19
64961;SHT31;51487;52.266;10.542;2024-01-15T13:39:18;3.01;86.68
64961;SHT31;51487;52.266;10.542;2024-01-15T13:41:48;3.00;86.54
64961;SHT31;51487;52.266;10.542;2024-01-15T13:44:14;3.01;85.84
64961;SHT31;51487;52.266;10.542;2024-01-15T13:46:39;3.07;86.18
64961;SHT31;51487;52.266;10.542;2024-01-15T13:49:05;3.11;86.43
64961;SHT31;51487;52.266;10.542;2024-01-15T13:51:31;3.11;85.57
64961;SHT31;51487;52.266;10.542;2024-01-15T13:53:57;3.14;85.40
64961;SHT31;51487;52.266;10.542;2024-01-15T13:56:23;3.07;86.22
64961;SHT31;51487;52.266;10.542;2024-01-15T13:58:48;3.13;86.45
64961;SHT31;51487;52.266;10.542;2024-01-15T14:01:15;2.90;87.08
64961;SHT31;51487;52.266;10.542;2024-01-15T14:03:43;2.83;88.77
64961;SHT31;51487;52.266;10.542;2024-01-15T14:06:09;2.62;89.72
64961;SHT31;51487;52.266;10.542;2024-01-15T14:08:35;2.50;90.69
64961;SHT31;51487;52.266;10.542;2024-01-15T14:11:03;2.57;90.83
64961;SHT31;51487;52.266;10.542;2024-01-15T14:13:28;2.39;91.33
64961;SHT31;51487;52.266;10.542;2024-01-15T14:15:54;2.46;92.06
64961;SHT31;51487;52.266;10.542;2024-01-15T14:18:21;2.36;92.55
64961;SHT31;51487;52.266;10.542;2024-01-15T14:20:46;2.41;93.00
64961;SHT31;51487;52.266;10.542;2024-01-15T14:23:13;2.46;92.00
64961;SHT31;51487;52.266;10.542;2024-01-15T14:25:39;2.42;92.59
64961;SHT31;51487;52.266;10.542;2024-01-15T14:28:05;2.29;92.84
64961;SHT31;51487;52.266;10.542;2024-01-15T14:30:30;2.34;92.62
64961;SHT31;51487;52.266;10.542;2024-01-15T14:32:56;2.32;91.94
64961;SHT31;51487;52.266;10.542;2024-01-15T14:35:21;2.31;91.72
64961;SHT31;51487;52.266;10.542;2024-01-15T14:37:46;2.34;92.00
64961;SHT31;51487;52.266;10.542;2024-01-15T14:40:13;2.28;91.68
64961;SHT31;51487;52.266;10.542;2024-01-15T14:42:41;2.34;91.40
64961;SHT31;51487;52.266;10.542;2024-01-15T14:45:07;2.38;91.28
64961;SHT31;51487;52.266;10.542;2024-01-15T14:47:37;2.36;91.25
64961;SHT31;51487;52.266;10.542;2024-01-15T14:50:08;2.43;91.13
64961;SHT31;51487;52.266;10.542;2024-01-15T14:52:34;2.48;90.97
64961;SHT31;51487;52.266;10.542;2024-01-15T14:55:00;2.49;90.83
64961;SHT31;51487;52.266;10.542;2024-01-15T14:57:26;2.31;91.36
64961;SHT31;51487;52.266;10.542;2024-01-15T14:59:51;2.32;92.32
64961;SHT31;51487;52.266;10.542;2024-01-15T15:02:17;2.25;92.59
64961;SHT31;51487;52.266;10.542;2024-01-15T15:04:43;2.08;93.45
64961;SHT31;51487;52.266;10.542;2024-01-15T15:07:08;1.98;94.00
64961;SHT31;51487;52.266;10.542;2024-01-15T15:09:35;1.91;94.28
64961;SHT31;51487;52.266;10.542;2024-01-15T15:12:03;1.97;94.49
64961;SHT31;51487;52.266;10.542;2024-01-15T15:14:30;1.95;94.74
64961;SHT31;51487;52.266;10.542;2024-01-15T15:16:57;1.95;94.84
64961;SHT31;51487;52.266;10.542;2024-01-15T15:19:23;2.03;94.19
64961;SHT31;51487;52.266;10.542;2024-01-15T15:21:49;2.10;94.14
64961;SHT31;51487;52.266;10.542;2024-01-15T15:24:14;1.97;94.63
64961;SHT31;51487;52.266;10.542;2024-01-15T15:26:40;1.84;94.52
64961;SHT31;51487;52.266;10.542;2024-01-15T15:29:06;2.01;94.29
64961;SHT31;51487;52.266;10.542;2024-01-15T15:31:31;1.97;94.47